sensor_id;sensor_type;location;lat;lon;timestamp;P1;durP1;ratioP1;P2;durP2;ratioP2
57443;SDS011;43289;52.962;6.196;2023-05-07T00:00:32;14.90;;;10.00;;
57443;SDS011;43289;52.962;6.196;2023-05-07T00:02:59;15.57;;;9.90;;
57443;SDS011;43289;52.962;6.196;2023-05-07T00:05:26;14.23;;;9.85;;
57443;SDS011;43289;52.962;6.196;2023-05-07T00:07:52;14.88;;;9.95;;
57443;SDS011;43289;52.962;6.196;2023-05-07T00:10:18;14.18;;;10.60;;
57443;SDS011;43289;52.962;6.196;2023-05-07T00:12:44;15.80;;;10.38;;
57443;SDS011;43289;52.962;6.196;2023-05-07T00:15:10;18.27;;;11.07;;
57443;SDS011;43289;52.962;6.196;2023-05-07T00:17:36;13.95;;;10.55;;
57443;SDS011;43289;52.962;6.196;2023-05-07T00:20:03;14.98;;;10.02;;
57443;SDS011;43289;52.962;6.196;2023-05-07T00:22:30;17.08;;;10.85;;
57443;SDS011;43289;52.962;6.196;2023-05-07T00:24:57;15.50;;;10.20;;
57443;SDS011;43289;52.962;6.196;2023-05-07T00:27:24;16.10;;;10.85;;
57443;SDS011;43289;52.962;6.196;2023-05-07T00:29:50;19.58;;;11.40;;
57443;SDS011;43289;52.962;6.196;2023-05-07T00:32:16;17.70;;;10.63;;
57443;SDS011;43289;52.962;6.196;2023-05-07T00:34:42;15.57;;;10.70;;
57443;SDS011;43289;52.962;6.196;2023-05-07T00:37:08;17.45;;;10.63;;
57443;SDS011;43289;52.962;6.196;2023-05-07T00:39:37;20.77;;;11.23;;
57443;SDS011;43289;52.962;6.196;2023-05-07T00:42:03;14.85;;;11.23;;
57443;SDS011;43289;52.962;6.196;2023-05-07T00:44:30;18.00;;;11.35;;
57443;SDS011;43289;52.962;6.196;2023-05-07T00:46:56;16.13;;;11.07;;
57443;SDS011;43289;52.962;6.196;2023-05-07T00:49:31;15.35;;;11.27;;
57443;SDS011;43289;52.962;6.196;2023-05-07T00:52:00;14.52;;;10.23;;
57443;SDS011;43289;52.962;6.196;2023-05-07T00:54:26;17.05;;;11.85;;
57443;SDS011;43289;52.962;6.196;2023-05-07T00:56:52;15.18;;;11.23;;
57443;SDS011;43289;52.962;6.196;2023-05-07T00:59:18;14.88;;;10.55;;
57443;SDS011;43289;52.962;6.196;2023-05-07T01:01:47;16.30;;;10.98;;
57443;SDS011;43289;52.962;6.196;2023-05-07T01:04:13;16.30;;;11.23;;
57443;SDS011;43289;52.962;6.196;2023-05-07T01:06:39;16.50;;;11.25;;
57443;SDS011;43289;52.962;6.196;2023-05-07T01:09:06;17.30;;;10.82;;
57443;SDS011;43289;52.962;6.196;2023-05-07T01:11:32;19.42;;;11.30;;
57443;SDS011;43289;52.962;6.196;2023-05-07T01:13:58;15.75;;;11.40;;
57443;SDS011;43289;52.962;6.196;2023-05-07T01:16:24;15.57;;;11.07;;
57443;SDS011;43289;52.962;6.196;2023-05-07T01:18:51;13.45;;;11.05;;
57443;SDS011;43289;52.962;6.196;2023-05-07T01:21:18;15.93;;;12.30;;
57443;SDS011;43289;52.962;6.196;2023-05-07T01:23:44;16.50;;;12.20;;
57443;SDS011;43289;52.962;6.196;2023-05-07T01:26:10;17.05;;;11.80;;
57443;SDS011;43289;52.962;6.196;2023-05-07T01:28:36;17.90;;;12.90;;
57443;SDS011;43289;52.962;6.196;2023-05-07T01:31:03;16.17;;;12.38;;
57443;SDS011;43289;52.962;6.196;2023-05-07T01:33:31;15.20;;;12.65;;
57443;SDS011;43289;52.962;6.196;2023-05-07T01:35:59;16.80;;;13.88;;
57443;SDS011;43289;52.962;6.196;2023-05-07T01:38:29;19.65;;;15.45;;
57443;SDS011;43289;52.962;6.196;2023-05-07T01:40:55;18.13;;;12.88;;
57443;SDS011;43289;52.962;6.196;2023-05-07T01:43:21;20.83;;;15.23;;
57443;SDS011;43289;52.962;6.196;2023-05-07T01:45:47;16.75;;;13.90;;
57443;SDS011;43289;52.962;6.196;2023-05-07T01:48:14;22.25;;;15.07;;
57443;SDS011;43289;52.962;6.196;2023-05-07T01:50:41;19.70;;;15.13;;
57443;SDS011;43289;52.962;6.196;2023-05-07T01:53:07;23.80;;;16.70;;
57443;SDS011;43289;52.962;6.196;2023-05-07T01:55:38;22.67;;;16.95;;
57443;SDS011;43289;52.962;6.196;2023-05-07T01:58:05;21.30;;;16.48;;
57443;SDS011;43289;52.962;6.196;2023-05-07T02:00:31;19.50;;;16.13;;
57443;SDS011;43289;52.962;6.196;2023-05-07T02:02:57;22.50;;;16.65;;
57443;SDS011;43289;52.962;6.196;2023-05-07T02:05:24;22.25;;;17.73;;
57443;SDS011;43289;52.962;6.196;2023-05-07T02:07:50;23.08;;;18.40;;
57443;SDS011;43289;52.962;6.196;2023-05-07T02:10:17;23.88;;;18.55;;
57443;SDS011;43289;52.962;6.196;2023-05-07T02:12:43;26.33;;;17.42;;
57443;SDS011;43289;52.962;6.196;2023-05-07T02:15:09;24.63;;;18.23;;
57443;SDS011;43289;52.962;6.196;2023-05-07T02:17:58;28.70;;;19.10;;
57443;SDS011;43289;52.962;6.196;2023-05-07T02:20:23;22.00;;;18.55;;
57443;SDS011;43289;52.962;6.196;2023-05-07T02:22:49;24.25;;;18.95;;
57443;SDS011;43289;52.962;6.196;2023-05-07T02:25:15;25.50;;;19.52;;
57443;SDS011;43289;52.962;6.196;2023-05-07T02:27:41;23.63;;;18.90;;
57443;SDS011;43289;52.962;6.196;2023-05-07T02:30:07;23.75;;;18.85;;
57443;SDS011;43289;52.962;6.196;2023-05-07T02:32:37;23.75;;;19.88;;
57443;SDS011;43289;52.962;6.196;2023-05-07T02:35:03;24.88;;;18.73;;
57443;SDS011;43289;52.962;6.196;2023-05-07T02:37:37;23.05;;;18.73;;
57443;SDS011;43289;52.962;6.196;2023-05-07T02:40:03;24.90;;;20.83;;
57443;SDS011;43289;52.962;6.196;2023-05-07T02:42:29;26.60;;;18.48;;
57443;SDS011;43289;52.962;6.196;2023-05-07T02:44:55;25.45;;;20.13;;
57443;SDS011;43289;52.962;6.196;2023-05-07T02:47:21;24.60;;;20.17;;
57443;SDS011;43289;52.962;6.196;2023-05-07T02:49:47;26.92;;;20.48;;
57443;SDS011;43289;52.962;6.196;2023-05-07T02:52:13;25.00;;;20.08;;
57443;SDS011;43289;52.962;6.196;2023-05-07T02:54:39;23.90;;;19.00;;
57443;SDS011;43289;52.962;6.196;2023-05-07T02:57:10;24.00;;;19.60;;
57443;SDS011;43289;52.962;6.196;2023-05-07T02:59:36;25.67;;;18.80;;
57443;SDS011;43289;52.962;6.196;2023-05-07T03:02:02;28.65;;;21.55;;
57443;SDS011;43289;52.962;6.196;2023-05-07T03:04:34;25.67;;;19.83;;
57443;SDS011;43289;52.962;6.196;2023-05-07T03:07:00;26.20;;;19.42;;
57443;SDS011;43289;52.962;6.196;2023-05-07T03:09:25;25.73;;;21.35;;
57443;SDS011;43289;52.962;6.196;2023-05-07T03:11:51;27.80;;;19.80;;
57443;SDS011;43289;52.962;6.196;2023-05-07T03:14:17;24.35;;;19.52;;
57443;SDS011;43289;52.962;6.196;2023-05-07T03:16:44;28.42;;;20.58;;
57443;SDS011;43289;52.962;6.196;2023-05-07T03:19:10;28.13;;;20.48;;
57443;SDS011;43289;52.962;6.196;2023-05-07T03:21:36;39.78;;;22.98;;
57443;SDS011;43289;52.962;6.196;2023-05-07T03:24:02;28.02;;;20.73;;
57443;SDS011;43289;52.962;6.196;2023-05-07T03:26:28;29.63;;;21.75;;
57443;SDS011;43289;52.962;6.196;2023-05-07T03:28:54;26.48;;;20.95;;
57443;SDS011;43289;52.962;6.196;2023-05-07T03:31:20;30.63;;;22.23;;
57443;SDS011;43289;52.962;6.196;2023-05-07T03:33:53;26.45;;;21.25;;
57443;SDS011;43289;52.962;6.196;2023-05-07T03:36:19;29.70;;;22.30;;
57443;SDS011;43289;52.962;6.196;2023-05-07T03:38:46;28.15;;;22.67;;
57443;SDS011;43289;52.962;6.196;2023-05-07T03:41:13;30.02;;;23.02;;
57443;SDS011;43289;52.962;6.196;2023-05-07T03:43:39;35.13;;;23.42;;
57443;SDS011;43289;52.962;6.196;2023-05-07T03:46:05;29.30;;;22.98;;
57443;SDS011;43289;52.962;6.196;2023-05-07T03:48:31;30.40;;;23.02;;
57443;SDS011;43289;52.962;6.196;2023-05-07T03:50:57;33.58;;;23.23;;
57443;SDS011;43289;52.962;6.196;2023-05-07T03:53:23;31.20;;;23.50;;
57443;SDS011;43289;52.962;6.196;2023-05-07T03:55:49;37.25;;;24.40;;
57443;SDS011;43289;52.962;6.196;2023-05-07T03:58:15;31.45;;;22.52;;
57443;SDS011;43289;52.962;6.196;2023-05-07T04:00:41;31.90;;;24.13;;
57443;SDS011;43289;52.962;6.196;2023-05-07T04:03:07;32.28;;;23.77;;
57443;SDS011;43289;52.962;6.196;2023-05-07T04:05:34;31.20;;;23.27;;
57443;SDS011;43289;52.962;6.196;2023-05-07T04:08:00;34.47;;;25.63;;
57443;SDS011;43289;52.962;6.196;2023-05-07T04:10:27;33.30;;;25.10;;
57443;SDS011;43289;52.962;6.196;2023-05-07T04:12:53;37.75;;;26.35;;
57443;SDS011;43289;52.962;6.196;2023-05-07T04:15:19;36.67;;;27.08;;
57443;SDS011;43289;52.962;6.196;2023-05-07T04:17:45;38.67;;;26.10;;
57443;SDS011;43289;52.962;6.196;2023-05-07T04:20:15;42.70;;;27.73;;
57443;SDS011;43289;52.962;6.196;2023-05-07T04:22:41;36.38;;;25.33;;
57443;SDS011;43289;52.962;6.196;2023-05-07T04:25:07;39.17;;;25.98;;
57443;SDS011;43289;52.962;6.196;2023-05-07T04:27:36;35.70;;;27.48;;
57443;SDS011;43289;52.962;6.196;2023-05-07T04:30:03;38.60;;;30.23;;
57443;SDS011;43289;52.962;6.196;2023-05-07T04:32:29;35.17;;;26.52;;
57443;SDS011;43289;52.962;6.196;2023-05-07T04:34:55;36.85;;;27.35;;
57443;SDS011;43289;52.962;6.196;2023-05-07T04:37:25;35.35;;;26.40;;
57443;SDS011;43289;52.962;6.196;2023-05-07T04:39:51;35.50;;;25.23;;
57443;SDS011;43289;52.962;6.196;2023-05-07T04:42:17;34.95;;;26.17;;
57443;SDS011;43289;52.962;6.196;2023-05-07T04:44:44;38.92;;;29.67;;
57443;SDS011;43289;52.962;6.196;2023-05-07T04:47:10;37.45;;;27.45;;
57443;SDS011;43289;52.962;6.196;2023-05-07T04:49:37;39.10;;;29.05;;
57443;SDS011;43289;52.962;6.196;2023-05-07T04:52:03;40.35;;;28.75;;
57443;SDS011;43289;52.962;6.196;2023-05-07T04:54:29;38.75;;;29.63;;
57443;SDS011;43289;52.962;6.196;2023-05-07T04:56:55;41.72;;;28.13;;
57443;SDS011;43289;52.962;6.196;2023-05-07T04:59:28;37.95;;;26.10;;
57443;SDS011;43289;52.962;6.196;2023-05-07T05:01:54;39.17;;;27.90;;
57443;SDS011;43289;52.962;6.196;2023-05-07T05:04:20;37.42;;;27.38;;
57443;SDS011;43289;52.962;6.196;2023-05-07T05:06:50;37.50;;;27.15;;
57443;SDS011;43289;52.962;6.196;2023-05-07T05:09:16;39.60;;;27.35;;
57443;SDS011;43289;52.962;6.196;2023-05-07T05:11:42;41.90;;;30.20;;
57443;SDS011;43289;52.962;6.196;2023-05-07T05:14:16;41.40;;;27.88;;
57443;SDS011;43289;52.962;6.196;2023-05-07T05:16:42;34.60;;;26.42;;
57443;SDS011;43289;52.962;6.196;2023-05-07T05:19:08;37.67;;;27.98;;
57443;SDS011;43289;52.962;6.196;2023-05-07T05:21:36;41.05;;;29.42;;
57443;SDS011;43289;52.962;6.196;2023-05-07T05:24:02;37.42;;;27.00;;
57443;SDS011;43289;52.962;6.196;2023-05-07T05:26:28;37.65;;;26.70;;
57443;SDS011;43289;52.962;6.196;2023-05-07T05:28:54;36.38;;;27.58;;
57443;SDS011;43289;52.962;6.196;2023-05-07T05:31:20;34.33;;;26.30;;
57443;SDS011;43289;52.962;6.196;2023-05-07T05:33:46;34.83;;;26.73;;
57443;SDS011;43289;52.962;6.196;2023-05-07T05:36:12;41.85;;;28.38;;
57443;SDS011;43289;52.962;6.196;2023-05-07T05:38:38;36.72;;;28.40;;
57443;SDS011;43289;52.962;6.196;2023-05-07T05:41:05;37.90;;;28.10;;
57443;SDS011;43289;52.962;6.196;2023-05-07T05:43:31;38.75;;;26.73;;
57443;SDS011;43289;52.962;6.196;2023-05-07T05:45:57;36.42;;;26.85;;
57443;SDS011;43289;52.962;6.196;2023-05-07T05:48:23;33.63;;;27.50;;
57443;SDS011;43289;52.962;6.196;2023-05-07T05:50:49;31.90;;;24.85;;
57443;SDS011;43289;52.962;6.196;2023-05-07T05:53:15;34.88;;;25.83;;
57443;SDS011;43289;52.962;6.196;2023-05-07T05:55:41;31.77;;;22.67;;
57443;SDS011;43289;52.962;6.196;2023-05-07T05:58:08;36.50;;;24.38;;
57443;SDS011;43289;52.962;6.196;2023-05-07T06:00:35;35.20;;;24.92;;
57443;SDS011;43289;52.962;6.196;2023-05-07T06:03:01;33.22;;;24.67;;
57443;SDS011;43289;52.962;6.196;2023-05-07T06:05:41;30.17;;;23.48;;
57443;SDS011;43289;52.962;6.196;2023-05-07T06:08:07;33.70;;;23.92;;
57443;SDS011;43289;52.962;6.196;2023-05-07T06:10:33;33.70;;;24.83;;
57443;SDS011;43289;52.962;6.196;2023-05-07T06:12:59;28.35;;;22.90;;
57443;SDS011;43289;52.962;6.196;2023-05-07T06:15:25;31.50;;;23.92;;
57443;SDS011;43289;52.962;6.196;2023-05-07T06:17:51;32.67;;;24.00;;
57443;SDS011;43289;52.962;6.196;2023-05-07T06:20:17;26.42;;;21.75;;
57443;SDS011;43289;52.962;6.196;2023-05-07T06:22:43;29.27;;;22.92;;
57443;SDS011;43289;52.962;6.196;2023-05-07T06:25:14;30.63;;;22.35;;
57443;SDS011;43289;52.962;6.196;2023-05-07T06:27:40;28.67;;;22.08;;
57443;SDS011;43289;52.962;6.196;2023-05-07T06:30:07;29.05;;;24.23;;
57443;SDS011;43289;52.962;6.196;2023-05-07T06:32:33;29.05;;;23.00;;
57443;SDS011;43289;52.962;6.196;2023-05-07T06:34:59;27.30;;;23.45;;
57443;SDS011;43289;52.962;6.196;2023-05-07T06:37:25;27.98;;;21.83;;
57443;SDS011;43289;52.962;6.196;2023-05-07T06:39:51;29.25;;;22.33;;
57443;SDS011;43289;52.962;6.196;2023-05-07T06:42:25;26.10;;;21.27;;
57443;SDS011;43289;52.962;6.196;2023-05-07T06:44:51;24.67;;;21.00;;
57443;SDS011;43289;52.962;6.196;2023-05-07T06:47:17;31.08;;;21.52;;
57443;SDS011;43289;52.962;6.196;2023-05-07T06:49:51;29.00;;;21.35;;
57443;SDS011;43289;52.962;6.196;2023-05-07T06:52:17;27.50;;;20.92;;
57443;SDS011;43289;52.962;6.196;2023-05-07T06:54:45;27.98;;;22.30;;
57443;SDS011;43289;52.962;6.196;2023-05-07T06:57:11;25.85;;;21.27;;
57443;SDS011;43289;52.962;6.196;2023-05-07T06:59:38;26.98;;;20.88;;
57443;SDS011;43289;52.962;6.196;2023-05-07T07:02:04;27.38;;;21.15;;
57443;SDS011;43289;52.962;6.196;2023-05-07T07:04:30;28.00;;;21.52;;
57443;SDS011;43289;52.962;6.196;2023-05-07T07:06:56;22.75;;;19.25;;
57443;SDS011;43289;52.962;6.196;2023-05-07T07:09:22;26.45;;;21.38;;
57443;SDS011;43289;52.962;6.196;2023-05-07T07:11:48;28.45;;;22.08;;
57443;SDS011;43289;52.962;6.196;2023-05-07T07:14:14;25.95;;;21.45;;
57443;SDS011;43289;52.962;6.196;2023-05-07T07:16:53;24.17;;;20.23;;
57443;SDS011;43289;52.962;6.196;2023-05-07T07:19:19;25.23;;;21.42;;
57443;SDS011;43289;52.962;6.196;2023-05-07T07:21:45;27.58;;;22.40;;
57443;SDS011;43289;52.962;6.196;2023-05-07T07:24:13;26.92;;;20.70;;
57443;SDS011;43289;52.962;6.196;2023-05-07T07:26:44;28.00;;;20.55;;
57443;SDS011;43289;52.962;6.196;2023-05-07T07:29:10;24.42;;;19.88;;
57443;SDS011;43289;52.962;6.196;2023-05-07T07:34:06;25.85;;;21.25;;
57443;SDS011;43289;52.962;6.196;2023-05-07T07:36:31;24.85;;;21.65;;
57443;SDS011;43289;52.962;6.196;2023-05-07T07:38:57;27.98;;;20.75;;
57443;SDS011;43289;52.962;6.196;2023-05-07T07:41:23;23.95;;;20.02;;
57443;SDS011;43289;52.962;6.196;2023-05-07T07:43:49;25.63;;;19.98;;
57443;SDS011;43289;52.962;6.196;2023-05-07T07:46:14;24.83;;;20.98;;
57443;SDS011;43289;52.962;6.196;2023-05-07T07:48:40;25.85;;;21.20;;
57443;SDS011;43289;52.962;6.196;2023-05-07T07:51:06;26.35;;;21.00;;
57443;SDS011;43289;52.962;6.196;2023-05-07T07:53:31;27.52;;;20.80;;
57443;SDS011;43289;52.962;6.196;2023-05-07T07:55:57;24.85;;;19.63;;
57443;SDS011;43289;52.962;6.196;2023-05-07T07:58:22;26.10;;;20.85;;
57443;SDS011;43289;52.962;6.196;2023-05-07T08:00:49;30.45;;;21.80;;
57443;SDS011;43289;52.962;6.196;2023-05-07T08:03:16;25.95;;;19.95;;
57443;SDS011;43289;52.962;6.196;2023-05-07T08:05:41;26.27;;;21.60;;
57443;SDS011;43289;52.962;6.196;2023-05-07T08:08:07;26.20;;;21.45;;
57443;SDS011;43289;52.962;6.196;2023-05-07T08:10:33;23.80;;;20.55;;
57443;SDS011;43289;52.962;6.196;2023-05-07T08:12:59;29.77;;;20.45;;
57443;SDS011;43289;52.962;6.196;2023-05-07T08:15:29;25.70;;;19.80;;
57443;SDS011;43289;52.962;6.196;2023-05-07T08:17:55;24.85;;;21.52;;
57443;SDS011;43289;52.962;6.196;2023-05-07T08:20:22;24.48;;;20.25;;
57443;SDS011;43289;52.962;6.196;2023-05-07T08:22:48;26.95;;;22.17;;
57443;SDS011;43289;52.962;6.196;2023-05-07T08:25:13;37.72;;;21.73;;
57443;SDS011;43289;52.962;6.196;2023-05-07T08:27:39;31.50;;;21.40;;
57443;SDS011;43289;52.962;6.196;2023-05-07T08:30:05;25.05;;;20.38;;
57443;SDS011;43289;52.962;6.196;2023-05-07T08:32:31;25.58;;;20.02;;
57443;SDS011;43289;52.962;6.196;2023-05-07T08:34:56;28.20;;;21.10;;
57443;SDS011;43289;52.962;6.196;2023-05-07T08:37:22;27.90;;;21.63;;
57443;SDS011;43289;52.962;6.196;2023-05-07T08:39:47;24.80;;;20.92;;
57443;SDS011;43289;52.962;6.196;2023-05-07T08:42:13;30.02;;;21.50;;
57443;SDS011;43289;52.962;6.196;2023-05-07T08:44:41;24.50;;;20.02;;
57443;SDS011;43289;52.962;6.196;2023-05-07T08:47:11;24.77;;;21.23;;
57443;SDS011;43289;52.962;6.196;2023-05-07T08:49:37;25.40;;;21.25;;
57443;SDS011;43289;52.962;6.196;2023-05-07T08:52:04;23.63;;;20.88;;
57443;SDS011;43289;52.962;6.196;2023-05-07T08:54:30;24.85;;;21.63;;
57443;SDS011;43289;52.962;6.196;2023-05-07T08:56:57;24.45;;;21.48;;
57443;SDS011;43289;52.962;6.196;2023-05-07T08:59:23;26.40;;;22.00;;
57443;SDS011;43289;52.962;6.196;2023-05-07T09:01:49;23.63;;;20.42;;
57443;SDS011;43289;52.962;6.196;2023-05-07T09:04:15;24.63;;;21.25;;
57443;SDS011;43289;52.962;6.196;2023-05-07T09:06:41;26.60;;;20.88;;
57443;SDS011;43289;52.962;6.196;2023-05-07T09:09:07;28.27;;;23.15;;
57443;SDS011;43289;52.962;6.196;2023-05-07T09:11:33;24.33;;;20.70;;
57443;SDS011;43289;52.962;6.196;2023-05-07T09:13:58;24.88;;;20.60;;
57443;SDS011;43289;52.962;6.196;2023-05-07T09:16:28;24.30;;;20.67;;
57443;SDS011;43289;52.962;6.196;2023-05-07T09:18:56;27.50;;;22.48;;
57443;SDS011;43289;52.962;6.196;2023-05-07T09:21:23;25.40;;;21.70;;
57443;SDS011;43289;52.962;6.196;2023-05-07T09:23:52;26.77;;;22.08;;
57443;SDS011;43289;52.962;6.196;2023-05-07T09:26:21;24.13;;;20.35;;
57443;SDS011;43289;52.962;6.196;2023-05-07T09:28:47;27.08;;;20.95;;
57443;SDS011;43289;52.962;6.196;2023-05-07T09:31:12;26.20;;;20.98;;
57443;SDS011;43289;52.962;6.196;2023-05-07T09:33:38;23.70;;;20.55;;
57443;SDS011;43289;52.962;6.196;2023-05-07T09:36:06;25.27;;;20.52;;
57443;SDS011;43289;52.962;6.196;2023-05-07T09:38:34;25.35;;;21.25;;
57443;SDS011;43289;52.962;6.196;2023-05-07T09:43:36;23.55;;;20.38;;
57443;SDS011;43289;52.962;6.196;2023-05-07T09:46:07;24.80;;;19.73;;
57443;SDS011;43289;52.962;6.196;2023-05-07T09:48:41;26.80;;;20.45;;
57443;SDS011;43289;52.962;6.196;2023-05-07T09:51:25;25.58;;;20.77;;
57443;SDS011;43289;52.962;6.196;2023-05-07T09:53:59;23.45;;;19.25;;
57443;SDS011;43289;52.962;6.196;2023-05-07T09:56:29;23.80;;;20.50;;
57443;SDS011;43289;52.962;6.196;2023-05-07T09:58:56;23.83;;;21.05;;
57443;SDS011;43289;52.962;6.196;2023-05-07T10:01:23;24.17;;;20.63;;
57443;SDS011;43289;52.962;6.196;2023-05-07T10:03:49;24.20;;;20.55;;
57443;SDS011;43289;52.962;6.196;2023-05-07T10:06:16;23.98;;;21.50;;
57443;SDS011;43289;52.962;6.196;2023-05-07T10:08:43;24.20;;;19.92;;
57443;SDS011;43289;52.962;6.196;2023-05-07T10:11:09;25.60;;;20.98;;
57443;SDS011;43289;52.962;6.196;2023-05-07T10:13:35;22.40;;;19.30;;
57443;SDS011;43289;52.962;6.196;2023-05-07T10:16:03;21.42;;;18.98;;
57443;SDS011;43289;52.962;6.196;2023-05-07T10:18:30;23.77;;;20.67;;
57443;SDS011;43289;52.962;6.196;2023-05-07T10:20:59;26.15;;;21.05;;
57443;SDS011;43289;52.962;6.196;2023-05-07T10:23:31;22.17;;;18.98;;
57443;SDS011;43289;52.962;6.196;2023-05-07T10:25:58;24.05;;;20.50;;
57443;SDS011;43289;52.962;6.196;2023-05-07T10:28:27;23.77;;;18.35;;
57443;SDS011;43289;52.962;6.196;2023-05-07T10:30:58;25.10;;;21.95;;
57443;SDS011;43289;52.962;6.196;2023-05-07T10:33:28;24.67;;;20.17;;
57443;SDS011;43289;52.962;6.196;2023-05-07T10:35:58;21.52;;;19.23;;
57443;SDS011;43289;52.962;6.196;2023-05-07T10:38:26;23.73;;;21.20;;
57443;SDS011;43289;52.962;6.196;2023-05-07T10:40:52;23.38;;;20.25;;
57443;SDS011;43289;52.962;6.196;2023-05-07T10:43:18;23.10;;;20.48;;
57443;SDS011;43289;52.962;6.196;2023-05-07T10:45:49;21.42;;;19.27;;
57443;SDS011;43289;52.962;6.196;2023-05-07T10:48:30;22.92;;;20.52;;
57443;SDS011;43289;52.962;6.196;2023-05-07T10:53:42;20.15;;;17.95;;
57443;SDS011;43289;52.962;6.196;2023-05-07T10:58:43;20.92;;;18.63;;
57443;SDS011;43289;52.962;6.196;2023-05-07T11:01:09;22.08;;;17.67;;
57443;SDS011;43289;52.962;6.196;2023-05-07T11:03:37;21.98;;;19.42;;
57443;SDS011;43289;52.962;6.196;2023-05-07T11:06:23;20.73;;;18.63;;
57443;SDS011;43289;52.962;6.196;2023-05-07T11:08:57;21.30;;;19.13;;
57443;SDS011;43289;52.962;6.196;2023-05-07T11:14:08;19.67;;;17.77;;
57443;SDS011;43289;52.962;6.196;2023-05-07T11:16:34;20.85;;;18.17;;
57443;SDS011;43289;52.962;6.196;2023-05-07T11:19:01;22.67;;;18.42;;
57443;SDS011;43289;52.962;6.196;2023-05-07T11:21:37;20.10;;;18.00;;
57443;SDS011;43289;52.962;6.196;2023-05-07T11:24:04;21.75;;;18.05;;
57443;SDS011;43289;52.962;6.196;2023-05-07T11:26:41;19.83;;;17.83;;
57443;SDS011;43289;52.962;6.196;2023-05-07T11:29:12;20.30;;;16.95;;
57443;SDS011;43289;52.962;6.196;2023-05-07T11:31:38;20.65;;;18.55;;
57443;SDS011;43289;52.962;6.196;2023-05-07T11:34:04;19.77;;;16.77;;
57443;SDS011;43289;52.962;6.196;2023-05-07T11:36:31;18.55;;;16.30;;
57443;SDS011;43289;52.962;6.196;2023-05-07T11:38:58;19.95;;;17.45;;
57443;SDS011;43289;52.962;6.196;2023-05-07T11:41:33;18.52;;;16.63;;
57443;SDS011;43289;52.962;6.196;2023-05-07T11:43:59;19.13;;;17.17;;
57443;SDS011;43289;52.962;6.196;2023-05-07T11:46:26;20.70;;;17.00;;
57443;SDS011;43289;52.962;6.196;2023-05-07T11:48:53;18.42;;;14.93;;
57443;SDS011;43289;52.962;6.196;2023-05-07T11:51:20;16.77;;;15.07;;
57443;SDS011;43289;52.962;6.196;2023-05-07T11:53:46;16.02;;;14.48;;
57443;SDS011;43289;52.962;6.196;2023-05-07T11:56:13;16.20;;;13.90;;
57443;SDS011;43289;52.962;6.196;2023-05-07T11:58:40;17.85;;;15.85;;
57443;SDS011;43289;52.962;6.196;2023-05-07T12:01:07;19.58;;;15.48;;
57443;SDS011;43289;52.962;6.196;2023-05-07T12:03:34;18.23;;;14.75;;
57443;SDS011;43289;52.962;6.196;2023-05-07T12:06:00;15.88;;;14.13;;
57443;SDS011;43289;52.962;6.196;2023-05-07T12:08:26;16.13;;;14.43;;
57443;SDS011;43289;52.962;6.196;2023-05-07T12:10:53;16.98;;;12.85;;
57443;SDS011;43289;52.962;6.196;2023-05-07T12:13:23;16.85;;;14.38;;
57443;SDS011;43289;52.962;6.196;2023-05-07T12:15:53;15.98;;;14.38;;
57443;SDS011;43289;52.962;6.196;2023-05-07T12:18:19;16.25;;;14.65;;
57443;SDS011;43289;52.962;6.196;2023-05-07T12:20:46;18.52;;;13.75;;
57443;SDS011;43289;52.962;6.196;2023-05-07T12:23:12;16.35;;;13.38;;
57443;SDS011;43289;52.962;6.196;2023-05-07T12:25:39;17.55;;;13.63;;
57443;SDS011;43289;52.962;6.196;2023-05-07T12:28:08;16.98;;;13.80;;
57443;SDS011;43289;52.962;6.196;2023-05-07T12:30:39;17.17;;;14.60;;
57443;SDS011;43289;52.962;6.196;2023-05-07T12:33:06;15.13;;;13.57;;
57443;SDS011;43289;52.962;6.196;2023-05-07T12:35:33;16.20;;;13.48;;
57443;SDS011;43289;52.962;6.196;2023-05-07T12:38:01;16.88;;;14.88;;
57443;SDS011;43289;52.962;6.196;2023-05-07T12:40:39;15.75;;;14.13;;
57443;SDS011;43289;52.962;6.196;2023-05-07T12:43:05;16.25;;;14.25;;
57443;SDS011;43289;52.962;6.196;2023-05-07T12:45:31;15.38;;;13.07;;
57443;SDS011;43289;52.962;6.196;2023-05-07T12:48:02;15.30;;;12.50;;
57443;SDS011;43289;52.962;6.196;2023-05-07T12:50:32;13.82;;;12.52;;
57443;SDS011;43289;52.962;6.196;2023-05-07T12:52:58;14.93;;;13.43;;
57443;SDS011;43289;52.962;6.196;2023-05-07T12:55:24;14.50;;;13.00;;
57443;SDS011;43289;52.962;6.196;2023-05-07T12:57:50;15.20;;;13.60;;
57443;SDS011;43289;52.962;6.196;2023-05-07T13:00:17;15.60;;;13.27;;
57443;SDS011;43289;52.962;6.196;2023-05-07T13:02:43;16.15;;;13.98;;
57443;SDS011;43289;52.962;6.196;2023-05-07T13:05:09;13.98;;;12.57;;
57443;SDS011;43289;52.962;6.196;2023-05-07T13:07:36;18.55;;;14.25;;
57443;SDS011;43289;52.962;6.196;2023-05-07T13:10:02;18.00;;;14.10;;
57443;SDS011;43289;52.962;6.196;2023-05-07T13:12:28;15.20;;;13.68;;
57443;SDS011;43289;52.962;6.196;2023-05-07T13:14:56;16.85;;;14.75;;
57443;SDS011;43289;52.962;6.196;2023-05-07T13:17:21;16.73;;;14.50;;
57443;SDS011;43289;52.962;6.196;2023-05-07T13:19:47;16.20;;;14.50;;
57443;SDS011;43289;52.962;6.196;2023-05-07T13:22:13;15.73;;;14.23;;
57443;SDS011;43289;52.962;6.196;2023-05-07T13:24:39;17.00;;;15.20;;
57443;SDS011;43289;52.962;6.196;2023-05-07T13:27:07;14.82;;;13.23;;
57443;SDS011;43289;52.962;6.196;2023-05-07T13:29:33;17.13;;;15.32;;
57443;SDS011;43289;52.962;6.196;2023-05-07T13:31:59;18.23;;;15.18;;
57443;SDS011;43289;52.962;6.196;2023-05-07T13:34:25;16.83;;;15.05;;
57443;SDS011;43289;52.962;6.196;2023-05-07T13:36:52;16.67;;;14.32;;
57443;SDS011;43289;52.962;6.196;2023-05-07T13:39:18;16.33;;;14.70;;
57443;SDS011;43289;52.962;6.196;2023-05-07T13:41:44;21.33;;;15.63;;
57443;SDS011;43289;52.962;6.196;2023-05-07T13:44:10;16.70;;;14.75;;
57443;SDS011;43289;52.962;6.196;2023-05-07T13:46:36;15.13;;;13.52;;
57443;SDS011;43289;52.962;6.196;2023-05-07T13:49:02;15.20;;;13.23;;
57443;SDS011;43289;52.962;6.196;2023-05-07T13:51:28;14.38;;;12.88;;
57443;SDS011;43289;52.962;6.196;2023-05-07T13:53:54;15.48;;;12.18;;
57443;SDS011;43289;52.962;6.196;2023-05-07T13:56:20;11.80;;;10.57;;
57443;SDS011;43289;52.962;6.196;2023-05-07T13:58:46;14.65;;;11.63;;
57443;SDS011;43289;52.962;6.196;2023-05-07T14:01:12;13.32;;;11.32;;
57443;SDS011;43289;52.962;6.196;2023-05-07T14:03:38;13.95;;;11.50;;
57443;SDS011;43289;52.962;6.196;2023-05-07T14:06:05;17.27;;;12.70;;
57443;SDS011;43289;52.962;6.196;2023-05-07T14:08:31;12.93;;;11.55;;
57443;SDS011;43289;52.962;6.196;2023-05-07T14:10:57;14.48;;;12.05;;
57443;SDS011;43289;52.962;6.196;2023-05-07T14:13:23;13.57;;;11.90;;
57443;SDS011;43289;52.962;6.196;2023-05-07T14:15:49;14.20;;;12.00;;
57443;SDS011;43289;52.962;6.196;2023-05-07T14:18:15;14.48;;;12.23;;
57443;SDS011;43289;52.962;6.196;2023-05-07T14:20:41;14.40;;;12.10;;
57443;SDS011;43289;52.962;6.196;2023-05-07T14:23:11;18.35;;;12.75;;
57443;SDS011;43289;52.962;6.196;2023-05-07T14:25:37;13.73;;;12.30;;
57443;SDS011;43289;52.962;6.196;2023-05-07T14:28:03;12.40;;;11.10;;
57443;SDS011;43289;52.962;6.196;2023-05-07T14:30:30;12.63;;;11.25;;
57443;SDS011;43289;52.962;6.196;2023-05-07T14:32:56;13.57;;;10.90;;